Time;durP1;ratioP1;P1;durP2;ratioP2;P2;SDS_P1;SDS_P2;PMS_P1;PMS_P2;Temp;Humidity;BMP_temperature;BMP_pressure;BME280_temperature;BME280_humidity;BME280_pressure;Samples;Min_cycle;Max_cycle;Signal;HPM_P1;HPM_P2
2023/03/26 00:01:53;;;;;;;1.70;1.70;;;18.50;62.50;;;;;;5087835;27;44538;-77
2023/03/26 00:04:24;;;;;;;1.60;1.60;;;18.50;62.30;;;;;;5062719;27;44134;-75
2023/03/26 00:06:52;;;;;;;1.50;1.50;;;18.50;62.50;;;;;;5073824;27;43562;-77
2023/03/26 00:09:21;;;;;;;1.60;1.60;;;18.40;62.50;;;;;;5057613;27;45033;-76
2023/03/26 00:11:49;;;;;;;1.93;1.87;;;18.40;62.40;;;;;;5058671;27;45079;-71
2023/03/26 00:14:17;;;;;;;1.80;1.70;;;18.40;62.50;;;;;;5065599;27;43525;-76
2023/03/26 00:16:46;;;;;;;1.63;1.63;;;18.40;62.90;;;;;;5089065;27;43431;-74
2023/03/26 00:19:14;;;;;;;1.53;1.53;;;18.30;63.00;;;;;;5085911;27;43997;-77
2023/03/26 00:21:43;;;;;;;1.80;1.70;;;18.30;63.20;;;;;;5064416;27;44376;-75
2023/03/26 00:24:13;;;;;;;2.00;1.90;;;18.20;63.00;;;;;;5081412;27;43510;-75
2023/03/26 00:26:42;;;;;;;1.80;1.70;;;18.30;63.00;;;;;;5068934;27;43450;-77
2023/03/26 00:29:12;;;;;;;1.63;1.63;;;18.30;63.10;;;;;;5083516;27;43894;-75
2023/03/26 00:31:44;;;;;;;1.80;1.80;;;18.30;63.40;;;;;;5078442;27;43557;-76
2023/03/26 00:34:14;;;;;;;1.60;1.60;;;18.20;63.50;;;;;;5079465;27;43877;-75
2023/03/26 00:36:45;;;;;;;1.87;1.77;;;18.20;63.50;;;;;;5063050;28;43548;-76
2023/03/26 00:39:14;;;;;;;1.60;1.60;;;18.20;63.30;;;;;;5055946;27;45609;-77
2023/03/26 00:41:43;;;;;;;1.50;1.50;;;18.20;63.20;;;;;;5057189;27;44342;-76
2023/03/26 00:44:11;;;;;;;1.40;1.40;;;18.20;63.50;;;;;;5088362;27;43393;-74
2023/03/26 00:46:42;;;;;;;1.47;1.47;;;18.20;63.50;;;;;;5057604;27;43559;-78
2023/03/26 00:49:13;;;;;;;1.70;1.60;;;18.20;63.60;;;;;;5072862;27;45686;-74
2023/03/26 00:51:41;;;;;;;1.70;1.60;;;18.10;63.60;;;;;;5080170;27;44005;-76
2023/03/26 00:54:12;;;;;;;1.80;1.70;;;18.10;63.30;;;;;;5080410;27;43449;-77
2023/03/26 00:56:40;;;;;;;2.00;1.90;;;18.30;63.10;;;;;;5084949;27;43487;-77
2023/03/26 00:59:09;;;;;;;1.70;1.60;;;18.40;62.70;;;;;;5081773;27;43947;-77
2023/03/26 01:01:37;;;;;;;1.70;1.60;;;18.40;63.10;;;;;;5066161;27;46190;-75
2023/03/26 01:04:26;;;;;;;1.60;1.60;;;18.40;62.40;;;;;;5081737;27;43468;-75
2023/03/26 01:06:57;;;;;;;1.90;1.80;;;18.40;62.60;;;;;;5078706;27;43391;-75
2023/03/26 01:09:34;;;;;;;1.43;1.33;;;18.40;62.60;;;;;;5081685;27;43682;-72
2023/03/26 01:12:03;;;;;;;2.00;1.90;;;18.40;62.60;;;;;;5071639;27;44811;-75
2023/03/26 01:14:31;;;;;;;1.50;1.50;;;18.30;62.80;;;;;;5075186;27;43446;-76
2023/03/26 01:16:59;;;;;;;2.00;1.50;;;18.30;63.10;;;;;;5061266;27;43558;-74
2023/03/26 01:19:29;;;;;;;1.97;1.67;;;18.20;63.20;;;;;;5080370;27;44772;-75
2023/03/26 01:21:57;;;;;;;1.90;1.80;;;18.20;63.20;;;;;;5079118;27;43447;-76
2023/03/26 01:24:27;;;;;;;1.90;1.80;;;18.20;63.00;;;;;;5061600;27;43977;-76
2023/03/26 01:27:09;;;;;;;1.43;1.43;;;18.20;63.10;;;;;;5075196;27;44195;-76
2023/03/26 01:29:41;;;;;;;1.67;1.67;;;18.20;63.40;;;;;;5083320;27;43938;-75
2023/03/26 01:32:20;;;;;;;1.50;1.50;;;18.20;63.50;;;;;;5091372;27;44082;-76
2023/03/26 01:34:59;;;;;;;1.80;1.80;;;18.10;63.50;;;;;;5087007;27;43812;-77
2023/03/26 01:37:32;;;;;;;1.77;1.67;;;18.20;63.40;;;;;;5088844;27;43996;-75
2023/03/26 01:40:06;;;;;;;1.83;1.83;;;18.20;63.00;;;;;;5080941;27;43884;-76
2023/03/26 01:42:36;;;;;;;1.47;1.47;;;18.30;62.70;;;;;;5065953;27;45300;-75
2023/03/26 01:45:07;;;;;;;1.60;1.60;;;18.30;62.60;;;;;;5070483;27;43408;-76
2023/03/26 01:47:35;;;;;;;1.57;1.57;;;18.30;62.80;;;;;;5075495;27;43494;-73
2023/03/26 01:50:04;;;;;;;1.97;1.87;;;18.30;63.00;;;;;;5062906;27;46207;-76
2023/03/26 01:52:32;;;;;;;1.60;1.60;;;18.30;62.90;;;;;;5061956;27;45159;-78
2023/03/26 01:55:05;;;;;;;1.53;1.53;;;18.30;62.80;;;;;;5081748;27;44031;-74
2023/03/26 01:57:35;;;;;;;1.67;1.57;;;18.30;63.10;;;;;;5061091;27;43471;-77
2023/03/26 02:00:18;;;;;;;1.50;1.50;;;18.30;63.30;;;;;;5056993;27;45769;-73
2023/03/26 02:02:56;;;;;;;1.70;1.70;;;18.20;63.30;;;;;;5062799;27;45294;-76
2023/03/26 02:05:26;;;;;;;1.43;1.40;;;18.20;63.20;;;;;;5091221;27;43400;-77
2023/03/26 02:07:57;;;;;;;1.40;1.40;;;18.20;63.10;;;;;;5057654;27;43569;-77
2023/03/26 02:10:28;;;;;;;1.30;1.30;;;18.20;63.20;;;;;;5066246;28;44088;-78
2023/03/26 02:12:56;;;;;;;1.70;1.70;;;18.20;63.40;;;;;;5087997;27;43881;-75
2023/03/26 02:15:24;;;;;;;2.27;2.10;;;18.20;63.50;;;;;;5083177;27;43502;-73
2023/03/26 02:17:52;;;;;;;1.70;1.60;;;18.10;63.60;;;;;;5070060;27;43487;-77
2023/03/26 02:20:20;;;;;;;1.67;1.67;;;18.10;63.40;;;;;;5072444;27;46294;-75
2023/03/26 02:22:48;;;;;;;1.43;1.43;;;18.20;63.20;;;;;;5083032;27;43487;-76
2023/03/26 02:25:19;;;;;;;1.63;1.63;;;18.30;62.90;;;;;;5078545;27;43866;-74
2023/03/26 02:27:51;;;;;;;1.57;1.50;;;18.30;62.70;;;;;;5070948;27;43804;-78
2023/03/26 02:30:24;;;;;;;1.43;1.33;;;18.30;63.00;;;;;;5067774;27;45797;-72
2023/03/26 02:32:57;;;;;;;1.70;1.70;;;18.30;63.20;;;;;;5069985;27;44493;-75
2023/03/26 02:35:29;;;;;;;1.50;1.50;;;18.20;62.90;;;;;;5066135;27;43400;-77
2023/03/26 02:38:00;;;;;;;1.53;1.43;;;18.20;62.90;;;;;;5062257;28;43585;-75
2023/03/26 02:40:28;;;;;;;1.40;1.40;;;18.20;63.10;;;;;;5058257;28;46844;-75
2023/03/26 02:42:58;;;;;;;1.63;1.53;;;18.20;63.20;;;;;;5069535;27;43792;-75
2023/03/26 02:45:28;;;;;;;1.70;1.70;;;18.20;63.40;;;;;;5066668;28;43510;-76
2023/03/26 02:48:06;;;;;;;1.73;1.70;;;18.20;63.50;;;;;;5079527;27;43848;-78
2023/03/26 02:50:56;;;;;;;1.63;1.53;;;18.10;63.20;;;;;;5063157;27;45824;-76
2023/03/26 02:53:48;;;;;;;1.40;1.40;;;18.20;62.90;;;;;;5063735;27;43540;-76
2023/03/26 02:56:35;;;;;;;1.40;1.40;;;18.30;62.70;;;;;;5065842;27;44135;-76
2023/03/26 02:59:23;;;;;;;1.43;1.43;;;18.30;62.90;;;;;;5065213;27;43558;-76
2023/03/26 03:02:12;;;;;;;1.40;1.40;;;18.30;63.10;;;;;;5085330;27;43902;-77
2023/03/26 03:04:40;;;;;;;1.60;1.60;;;18.30;63.00;;;;;;5064676;27;44569;-74
2023/03/26 03:07:08;;;;;;;1.77;1.67;;;18.20;62.90;;;;;;5067035;27;43823;-76
2023/03/26 03:09:38;;;;;;;1.43;1.43;;;18.20;63.00;;;;;;5066120;27;44044;-74
2023/03/26 03:12:24;;;;;;;1.40;1.40;;;18.20;63.30;;;;;;5082015;27;43587;-77
2023/03/26 03:14:54;;;;;;;1.57;1.47;;;18.20;63.40;;;;;;5063341;27;43516;-77
2023/03/26 03:17:22;;;;;;;1.70;1.60;;;18.10;63.30;;;;;;5063343;27;43666;-77
2023/03/26 03:19:50;;;;;;;1.87;1.77;;;18.10;63.20;;;;;;5084420;27;43428;-75
2023/03/26 03:22:18;;;;;;;1.57;1.57;;;18.30;63.00;;;;;;5060562;27;45801;-75
2023/03/26 03:24:50;;;;;;;1.20;1.20;;;18.30;62.70;;;;;;5067597;28;44899;-76
2023/03/26 03:27:19;;;;;;;1.30;1.30;;;18.30;62.80;;;;;;5058745;27;44098;-76
2023/03/26 03:29:55;;;;;;;1.50;1.40;;;18.30;63.00;;;;;;5087132;27;43858;-77
2023/03/26 03:32:42;;;;;;;1.47;1.47;;;18.20;63.00;;;;;;5069802;27;44120;-77
2023/03/26 03:35:10;;;;;;;1.80;1.50;;;18.20;62.80;;;;;;5059332;27;43989;-75
2023/03/26 03:37:40;;;;;;;1.30;1.30;;;18.20;62.90;;;;;;5067181;27;43494;-76
2023/03/26 03:40:10;;;;;;;1.70;1.60;;;18.20;63.90;;;;;;5069877;27;43583;-75
2023/03/26 03:42:41;;;;;;;1.80;1.70;;;18.20;63.30;;;;;;5067964;27;44186;-77
2023/03/26 03:45:12;;;;;;;1.43;1.43;;;18.10;63.40;;;;;;5071383;27;44425;-77
2023/03/26 03:48:09;;;;;;;1.57;1.57;;;18.10;63.20;;;;;;5062854;27;43869;-77
2023/03/26 03:50:44;;;;;;;1.67;1.53;;;18.20;63.00;;;;;;5061932;27;43567;-77
2023/03/26 03:53:25;;;;;;;1.47;1.47;;;18.30;62.70;;;;;;5060833;27;44811;-75
2023/03/26 03:55:54;;;;;;;3.63;1.60;;;18.30;62.50;;;;;;5066979;27;44820;-71
2023/03/26 03:58:29;;;;;;;3.07;1.70;;;18.30;62.90;;;;;;5085132;27;43429;-77
2023/03/26 04:01:06;;;;;;;5.23;1.60;;;18.20;63.00;;;;;;5068968;28;43488;-75
2023/03/26 04:04:00;;;;;;;1.80;1.50;;;18.20;62.90;;;;;;5082490;27;44720;-77
2023/03/26 04:06:43;;;;;;;1.50;1.50;;;18.20;62.80;;;;;;5068103;27;43463;-76
2023/03/26 04:09:13;;;;;;;1.70;1.47;;;18.20;63.10;;;;;;5056891;27;43546;-75
2023/03/26 04:11:42;;;;;;;1.50;1.40;;;18.20;63.30;;;;;;5055510;27;43475;-76
2023/03/26 04:14:25;;;;;;;1.40;1.40;;;18.10;63.40;;;;;;5063255;27;44096;-78
2023/03/26 04:16:59;;;;;;;1.40;1.40;;;18.10;63.30;;;;;;5071718;27;45056;-77
2023/03/26 04:19:29;;;;;;;1.33;1.33;;;18.10;63.20;;;;;;5062467;27;43470;-75
2023/03/26 04:22:01;;;;;;;1.20;1.20;;;18.10;63.30;;;;;;5072087;27;43646;-74
2023/03/26 04:24:37;;;;;;;1.20;1.20;;;18.10;63.50;;;;;;5058860;27;43861;-77
2023/03/26 04:27:26;;;;;;;1.43;1.33;;;18.10;63.60;;;;;;5081099;27;43526;-76
2023/03/26 04:30:02;;;;;;;1.63;1.53;;;18.00;63.70;;;;;;5063536;27;43452;-76
2023/03/26 04:32:32;;;;;;;1.43;1.43;;;18.00;63.40;;;;;;5061295;28;43543;-77
2023/03/26 04:35:02;;;;;;;1.30;1.30;;;18.10;63.30;;;;;;5058246;28;45683;-74
2023/03/26 04:37:33;;;;;;;1.50;1.40;;;18.20;62.90;;;;;;5053308;27;44849;-77
2023/03/26 04:40:09;;;;;;;1.50;1.50;;;18.30;62.60;;;;;;5069915;27;43527;-76
2023/03/26 04:42:40;;;;;;;1.30;1.30;;;18.30;62.60;;;;;;5068901;27;43539;-76
2023/03/26 04:45:21;;;;;;;1.30;1.30;;;18.30;62.80;;;;;;5050963;27;43828;-76
2023/03/26 04:47:56;;;;;;;1.30;1.30;;;18.20;62.70;;;;;;5068818;27;45016;-75
2023/03/26 04:50:25;;;;;;;1.63;1.53;;;18.20;62.60;;;;;;5071579;27;43454;-76
2023/03/26 04:52:53;;;;;;;1.30;1.30;;;18.20;63.60;;;;;;5064219;28;43715;-77
2023/03/26 04:55:52;;;;;;;1.20;1.20;;;18.20;63.20;;;;;;5082062;27;43942;-76
2023/03/26 04:58:39;;;;;;;1.30;1.30;;;18.10;63.30;;;;;;5066344;28;43486;-77
2023/03/26 05:01:07;;;;;;;1.47;1.37;;;18.10;63.20;;;;;;5062582;28;43524;-76
2023/03/26 05:03:40;;;;;;;1.50;1.40;;;18.10;63.10;;;;;;5067192;27;43937;-75
2023/03/26 05:06:12;;;;;;;1.10;1.10;;;18.10;63.10;;;;;;5080445;27;45479;-75
2023/03/26 05:08:43;;;;;;;1.20;1.20;;;18.10;63.30;;;;;;5070389;27;44758;-78
2023/03/26 05:11:20;;;;;;;1.40;1.40;;;18.10;63.50;;;;;;5065421;27;43441;-74
2023/03/26 05:13:48;;;;;;;1.43;1.43;;;18.10;63.50;;;;;;5065581;27;43575;-76
2023/03/26 05:16:17;;;;;;;1.40;1.40;;;18.10;63.40;;;;;;5074284;27;45570;-74
2023/03/26 05:18:52;;;;;;;1.30;1.30;;;18.20;63.20;;;;;;5066346;27;43765;-75
2023/03/26 05:21:22;;;;;;;1.40;1.40;;;18.20;62.80;;;;;;5069481;27;43478;-76
2023/03/26 05:23:50;;;;;;;1.30;1.30;;;18.20;62.60;;;;;;5069003;27;43527;-74
2023/03/26 05:26:19;;;;;;;1.57;1.50;;;18.20;62.90;;;;;;5075501;27;44810;-76
2023/03/26 05:28:48;;;;;;;1.30;1.30;;;18.20;63.10;;;;;;5076066;27;43814;-74
2023/03/26 05:31:31;;;;;;;1.43;1.43;;;18.20;63.00;;;;;;5057836;28;43517;-77
2023/03/26 05:34:02;;;;;;;1.50;1.40;;;18.20;62.90;;;;;;5062637;27;43686;-76
2023/03/26 05:36:30;;;;;;;1.17;1.17;;;18.20;63.00;;;;;;5071525;28;46192;-76
2023/03/26 05:39:25;;;;;;;1.10;1.10;;;18.20;63.20;;;;;;5071127;27;43866;-75
2023/03/26 05:42:12;;;;;;;1.10;1.10;;;18.10;63.40;;;;;;5078959;27;43464;-77
2023/03/26 05:45:01;;;;;;;1.30;1.30;;;18.10;63.40;;;;;;5066168;27;43568;-75
2023/03/26 05:47:32;;;;;;;1.30;1.30;;;18.10;63.20;;;;;;5069902;27;43991;-76
2023/03/26 05:50:01;;;;;;;1.17;1.17;;;18.20;62.40;;;;;;5062693;27;45035;-77
2023/03/26 05:52:30;;;;;;;1.30;1.30;;;18.30;62.70;;;;;;5062989;27;44731;-76
2023/03/26 05:55:18;;;;;;;1.30;1.30;;;18.30;62.50;;;;;;5079347;27;44013;-73
2023/03/26 05:58:18;;;;;;;1.30;1.30;;;18.20;62.80;;;;;;5084465;27;43792;-75
2023/03/26 06:01:07;;;;;;;1.37;1.37;;;18.20;62.70;;;;;;5068376;27;44158;-76
2023/03/26 06:03:55;;;;;;;1.23;1.23;;;18.20;62.70;;;;;;5085187;27;43606;-77
2023/03/26 06:06:28;;;;;;;1.10;1.10;;;18.20;62.90;;;;;;5078227;27;43542;-74
2023/03/26 06:08:59;;;;;;;1.30;1.30;;;18.20;63.20;;;;;;5069294;27;45599;-76
2023/03/26 06:11:30;;;;;;;1.30;1.30;;;18.10;63.30;;;;;;5068095;27;45061;-75
2023/03/26 06:13:59;;;;;;;1.10;1.10;;;18.10;63.20;;;;;;5075694;27;43510;-75
2023/03/26 06:16:27;;;;;;;1.80;1.37;;;18.10;63.10;;;;;;5062146;27;44061;-75
2023/03/26 06:19:05;;;;;;;1.10;1.10;;;18.10;63.20;;;;;;5060420;27;44907;-76
2023/03/26 06:21:58;;;;;;;1.17;1.17;;;18.10;63.30;;;;;;5071529;27;43438;-76
2023/03/26 06:24:31;;;;;;;1.17;1.17;;;18.10;63.50;;;;;;5068533;27;43471;-74
2023/03/26 06:27:19;;;;;;;1.40;1.30;;;18.10;63.60;;;;;;5064024;27;43500;-74
2023/03/26 06:30:19;;;;;;;1.20;1.20;;;18.00;63.30;;;;;;5077839;27;43576;-78
2023/03/26 06:33:14;;;;;;;1.07;1.07;;;18.00;63.20;;;;;;5088454;27;43811;-76
2023/03/26 06:35:47;;;;;;;1.10;1.10;;;18.00;63.40;;;;;;5060852;28;43378;-78
2023/03/26 06:38:17;;;;;;;1.20;1.20;;;18.00;63.50;;;;;;5066108;27;43868;-76
2023/03/26 06:40:45;;;;;;;1.10;1.10;;;18.00;63.60;;;;;;5064484;27;44974;-74
2023/03/26 06:43:35;;;;;;;1.20;1.20;;;18.00;63.50;;;;;;5041474;27;43656;-76
2023/03/26 06:46:03;;;;;;;0.97;0.97;;;18.00;63.30;;;;;;5086138;27;43821;-75
2023/03/26 06:49:06;;;;;;;0.90;0.90;;;18.20;63.00;;;;;;5083550;27;43890;-77
2023/03/26 06:51:53;;;;;;;1.20;1.20;;;18.30;62.70;;;;;;5057208;27;45040;-75
2023/03/26 06:54:48;;;;;;;1.10;1.10;;;18.20;62.60;;;;;;5058091;27;43448;-73
2023/03/26 06:57:44;;;;;;;1.33;1.33;;;18.20;62.90;;;;;;5071347;27;43518;-77
2023/03/26 07:00:15;;;;;;;1.13;1.13;;;18.20;62.70;;;;;;5078578;27;43486;-77
2023/03/26 07:03:03;;;;;;;1.20;1.20;;;18.20;62.60;;;;;;4791578;27;8388473;-74
2023/03/26 07:05:49;;;;;;;1.13;1.13;;;18.20;62.90;;;;;;5079276;27;43669;-77
2023/03/26 07:08:36;;;;;;;1.20;1.20;;;18.20;63.10;;;;;;5095309;27;43404;-74
2023/03/26 07:11:25;;;;;;;1.20;1.20;;;18.10;63.20;;;;;;5087430;27;43980;-77
2023/03/26 07:14:04;;;;;;;1.20;1.20;;;18.10;63.10;;;;;;5080167;27;43462;-72
2023/03/26 07:16:51;;;;;;;1.10;1.10;;;18.10;63.00;;;;;;5077634;27;43501;-70
2023/03/26 07:19:31;;;;;;;1.10;1.10;;;18.10;63.20;;;;;;5068643;27;43447;-76
2023/03/26 07:21:59;;;;;;;1.00;1.00;;;18.10;63.40;;;;;;5084890;27;43989;-70
2023/03/26 07:24:54;;;;;;;1.17;1.17;;;18.10;63.50;;;;;;5068423;27;43981;-74
2023/03/26 07:27:47;;;;;;;1.17;1.17;;;18.00;63.30;;;;;;5074159;27;44012;-76
2023/03/26 07:30:25;;;;;;;1.20;1.20;;;18.00;63.20;;;;;;5071488;27;43510;-77
2023/03/26 07:33:20;;;;;;;1.00;1.00;;;18.00;63.30;;;;;;5083653;27;43427;-73
2023/03/26 07:36:07;;;;;;;1.10;1.10;;;18.00;63.50;;;;;;5082715;27;43592;-76
2023/03/26 07:39:09;;;;;;;1.40;1.40;;;18.00;63.60;;;;;;5059358;27;43808;-76
2023/03/26 07:42:02;;;;;;;1.20;1.20;;;18.00;63.50;;;;;;5095908;27;43437;-76
2023/03/26 07:45:14;;;;;;;1.07;1.07;;;18.00;63.30;;;;;;5018605;28;43445;-75
2023/03/26 07:47:55;;;;;;;1.03;1.03;;;18.20;62.90;;;;;;5082281;27;43584;-77
2023/03/26 07:50:35;;;;;;;1.27;1.27;;;18.30;62.60;;;;;;5086188;27;45774;-77
2023/03/26 07:53:17;;;;;;;1.07;1.07;;;18.30;62.30;;;;;;5088264;27;44716;-75
2023/03/26 07:56:15;;;;;;;1.10;1.10;;;18.30;62.50;;;;;;5010038;28;44038;-76
2023/03/26 07:59:03;;;;;;;1.10;1.10;;;18.30;62.60;;;;;;5087078;27;43579;-76
2023/03/26 08:02:39;;;;;;;0.90;0.90;;;18.30;62.50;;;;;;5060627;27;44876;-76
2023/03/26 08:05:27;;;;;;;0.90;0.90;;;18.20;62.60;;;;;;5079244;27;43544;-74
2023/03/26 08:08:03;;;;;;;0.93;0.93;;;18.20;62.90;;;;;;5089504;27;43409;-74
2023/03/26 08:10:40;;;;;;;1.23;1.13;;;18.10;63.10;;;;;;5089069;27;43566;-76
2023/03/26 08:13:15;;;;;;;1.10;1.10;;;18.10;63.10;;;;;;5088255;27;43858;-77
2023/03/26 08:15:46;;;;;;;0.80;0.80;;;18.10;63.00;;;;;;5106886;27;43393;-76
2023/03/26 08:18:26;;;;;;;1.10;1.10;;;18.10;63.10;;;;;;5097326;27;43431;-75
2023/03/26 08:20:57;;;;;;;1.00;1.00;;;18.10;63.30;;;;;;5087259;27;43463;-77
2023/03/26 08:23:27;;;;;;;0.90;0.90;;;18.00;63.30;;;;;;5087928;27;45491;-75
2023/03/26 08:26:01;;;;;;;1.20;1.20;;;18.00;63.30;;;;;;5088734;27;45292;-76
2023/03/26 08:28:36;;;;;;;1.10;1.10;;;18.00;63.20;;;;;;5086310;27;43884;-75
2023/03/26 08:31:05;;;;;;;1.20;1.20;;;18.00;63.10;;;;;;5098520;27;43727;-76
2023/03/26 08:33:35;;;;;;;0.90;0.90;;;18.00;63.30;;;;;;5088018;27;45779;-75
2023/03/26 08:36:05;;;;;;;1.20;1.20;;;18.00;63.40;;;;;;5085192;27;45331;-76
2023/03/26 08:38:33;;;;;;;1.13;1.13;;;18.00;63.50;;;;;;5099467;27;43861;-75
2023/03/26 08:41:39;;;;;;;1.10;1.10;;;17.90;64.10;;;;;;5096933;27;43445;-79
2023/03/26 08:44:35;;;;;;;1.10;1.10;;;18.00;63.30;;;;;;5100571;27;43752;-76
2023/03/26 08:47:29;;;;;;;1.03;1.03;;;18.20;62.90;;;;;;5085088;27;43535;-74
2023/03/26 08:50:20;;;;;;;1.20;1.20;;;18.20;62.40;;;;;;5084818;27;43962;-76
2023/03/26 08:53:17;;;;;;;1.20;1.20;;;18.30;62.40;;;;;;5083292;27;43558;-77
2023/03/26 08:55:52;;;;;;;1.20;1.20;;;18.20;62.50;;;;;;5074892;27;47218;-77
2023/03/26 08:58:54;;;;;;;1.20;1.20;;;18.20;62.60;;;;;;5074370;27;43474;-76
2023/03/26 09:01:44;;;;;;;1.20;1.20;;;18.20;62.60;;;;;;5092558;27;43432;-77
2023/03/26 09:04:35;;;;;;;0.97;0.97;;;18.20;62.90;;;;;;5103148;27;43371;-77
2023/03/26 09:07:41;;;;;;;0.73;0.73;;;18.10;63.10;;;;;;5091358;27;45723;-77
2023/03/26 09:10:26;;;;;;;1.20;1.20;;;18.10;63.20;;;;;;5086331;27;44439;-75
2023/03/26 09:13:14;;;;;;;1.00;1.00;;;18.00;63.10;;;;;;5106130;27;44071;-78
2023/03/26 09:16:19;;;;;;;1.10;1.10;;;18.10;63.10;;;;;;5104496;27;43950;-74
2023/03/26 09:19:39;;;;;;;1.17;1.17;;;18.10;63.30;;;;;;5088037;27;43835;-72
2023/03/26 09:22:32;;;;;;;0.87;0.87;;;18.00;63.40;;;;;;5038505;28;43827;-77
2023/03/26 09:25:17;;;;;;;1.17;1.17;;;18.00;63.50;;;;;;5040663;28;43473;-76
2023/03/26 09:27:59;;;;;;;1.20;1.20;;;18.00;63.30;;;;;;5081317;27;43617;-77
2023/03/26 09:30:51;;;;;;;1.07;1.07;;;18.00;63.20;;;;;;5103643;27;44030;-76
2023/03/26 09:33:31;;;;;;;1.33;1.33;;;18.00;63.30;;;;;;5103220;27;44753;-76
2023/03/26 09:36:17;;;;;;;1.10;1.10;;;18.00;63.50;;;;;;5103852;27;43404;-76
2023/03/26 09:38:46;;;;;;;1.10;1.10;;;18.00;63.50;;;;;;5106536;27;43333;-77
2023/03/26 09:41:17;;;;;;;1.30;1.30;;;18.00;63.40;;;;;;5092555;27;43907;-76
2023/03/26 09:44:26;;;;;;;1.20;1.20;;;18.00;63.20;;;;;;5107349;27;43526;-73
2023/03/26 09:47:03;;;;;;;1.00;1.00;;;18.10;62.80;;;;;;5100651;27;43483;-76
2023/03/26 09:49:44;;;;;;;1.00;1.00;;;18.20;62.50;;;;;;5097191;27;43569;-77
2023/03/26 09:52:25;;;;;;;1.17;1.17;;;18.20;62.70;;;;;;5092551;27;46817;-76
2023/03/26 09:55:26;;;;;;;0.90;0.90;;;18.20;63.00;;;;;;5106685;27;43464;-77
2023/03/26 09:58:32;;;;;;;1.00;1.00;;;18.10;62.90;;;;;;5105282;27;44591;-74
2023/03/26 10:01:04;;;;;;;0.93;0.93;;;18.10;62.80;;;;;;5101987;27;43597;-73
2023/03/26 10:03:46;;;;;;;1.10;1.10;;;18.10;63.10;;;;;;5103794;27;44133;-76
2023/03/26 10:06:28;;;;;;;1.10;1.10;;;18.10;63.30;;;;;;5084622;27;44961;-75
2023/03/26 10:09:07;;;;;;;1.00;1.00;;;18.00;63.30;;;;;;5101183;27;43553;-78
2023/03/26 10:11:56;;;;;;;1.27;1.27;;;18.00;63.30;;;;;;5106388;27;43839;-77
2023/03/26 10:14:27;;;;;;;0.80;0.80;;;18.00;63.30;;;;;;5101797;27;43910;-75
2023/03/26 10:17:00;;;;;;;1.00;1.00;;;18.00;63.40;;;;;;5105338;27;43457;-71
2023/03/26 10:19:45;;;;;;;0.90;0.90;;;18.00;63.50;;;;;;5106382;27;43517;-77
2023/03/26 10:22:21;;;;;;;1.00;1.00;;;18.00;63.70;;;;;;5107863;27;43493;-75
2023/03/26 10:25:00;;;;;;;1.03;0.90;;;18.00;63.80;;;;;;5105596;27;43840;-75
2023/03/26 10:27:34;;;;;;;1.00;1.00;;;18.00;63.70;;;;;;5087506;27;44283;-73
2023/03/26 10:30:33;;;;;;;1.10;1.10;;;18.10;63.40;;;;;;5104008;27;43493;-76
2023/03/26 10:33:14;;;;;;;1.20;1.20;;;18.10;62.90;;;;;;5086302;27;43482;-77
2023/03/26 10:35:48;;;;;;;1.20;1.10;;;18.20;62.90;;;;;;5103886;27;43763;-76
2023/03/26 10:38:21;;;;;;;1.00;1.00;;;18.20;63.20;;;;;;5085059;27;44534;-75
2023/03/26 10:40:55;;;;;;;2.43;1.13;;;18.10;63.10;;;;;;5084455;27;44162;-74
2023/03/26 10:43:56;;;;;;;1.00;1.00;;;18.10;62.90;;;;;;5105480;27;43454;-76
2023/03/26 10:47:00;;;;;;;1.00;1.00;;;18.10;63.10;;;;;;5103212;27;43858;-77
2023/03/26 10:50:00;;;;;;;0.77;0.77;;;18.10;63.30;;;;;;5103390;27;43843;-75
2023/03/26 10:52:31;;;;;;;1.00;1.00;;;18.10;63.50;;;;;;5104269;27;43455;-76
2023/03/26 10:55:02;;;;;;;1.20;1.20;;;18.10;63.60;;;;;;5105989;27;43462;-75
2023/03/26 10:57:38;;;;;;;1.10;1.10;;;18.00;63.40;;;;;;5089297;27;45386;-77
2023/03/26 11:00:14;;;;;;;0.83;0.83;;;18.00;63.40;;;;;;5106082;27;43483;-76
2023/03/26 11:02:47;;;;;;;1.00;1.00;;;18.00;63.60;;;;;;5084805;27;43502;-76
2023/03/26 11:05:24;;;;;;;2.73;1.13;;;18.00;63.70;;;;;;5100962;27;43449;-78
2023/03/26 11:07:54;;;;;;;1.10;1.10;;;18.00;63.80;;;;;;5084920;27;46074;-75
2023/03/26 11:10:35;;;;;;;1.07;1.07;;;18.00;63.70;;;;;;5086636;27;44996;-74
2023/03/26 11:13:06;;;;;;;1.30;1.30;;;18.00;63.60;;;;;;5101696;27;44132;-71
2023/03/26 11:15:36;;;;;;;0.97;0.97;;;18.10;63.20;;;;;;5087162;27;43548;-76
2023/03/26 11:18:11;;;;;;;0.90;0.90;;;18.20;63.10;;;;;;5082668;27;45589;-76
2023/03/26 11:20:41;;;;;;;0.90;0.90;;;18.20;63.20;;;;;;5102934;27;44010;-75
2023/03/26 11:23:18;;;;;;;1.00;1.00;;;18.10;63.40;;;;;;5103398;27;43402;-77
2023/03/26 11:26:00;;;;;;;1.20;1.20;;;18.10;63.40;;;;;;5102273;27;43375;-78
2023/03/26 11:28:47;;;;;;;1.20;1.20;;;18.10;63.40;;;;;;5085403;27;46310;-76
2023/03/26 11:31:41;;;;;;;0.87;0.87;;;18.10;63.30;;;;;;5102763;27;43468;-78
2023/03/26 11:34:12;;;;;;;1.00;1.00;;;18.10;63.50;;;;;;5102560;27;43496;-76
2023/03/26 11:36:42;;;;;;;5.40;1.27;;;18.10;63.50;;;;;;5103148;27;43470;-76
2023/03/26 11:39:12;;;;;;;1.33;1.23;;;18.00;63.40;;;;;;5103611;27;43630;-75
2023/03/26 11:41:40;;;;;;;1.23;1.10;;;18.00;63.60;;;;;;5101394;27;44095;-75
2023/03/26 11:44:22;;;;;;;1.20;1.20;;;18.10;63.50;;;;;;5082950;27;43486;-77
2023/03/26 11:46:52;;;;;;;1.00;1.00;;;18.10;63.70;;;;;;5101816;27;43498;-77
2023/03/26 11:49:21;;;;;;;1.13;1.13;;;18.10;63.80;;;;;;5087926;27;45360;-77
2023/03/26 11:51:49;;;;;;;1.03;1.03;;;18.00;63.70;;;;;;5104822;27;43449;-75
2023/03/26 11:54:19;;;;;;;1.57;1.30;;;18.00;63.80;;;;;;5103704;27;43457;-73
2023/03/26 11:56:48;;;;;;;1.20;1.20;;;18.00;63.80;;;;;;5101362;27;43516;-74
2023/03/26 11:59:34;;;;;;;1.00;1.00;;;18.20;63.70;;;;;;5103326;27;43564;-76
2023/03/26 12:02:18;;;;;;;1.73;1.20;;;18.30;63.30;;;;;;5083969;27;44028;-76
2023/03/26 12:04:54;;;;;;;1.20;1.20;;;18.30;62.90;;;;;;5101621;27;43486;-77
2023/03/26 12:07:22;;;;;;;1.20;1.20;;;18.30;63.00;;;;;;5082900;27;44029;-77
2023/03/26 12:09:51;;;;;;;1.17;1.17;;;18.20;63.10;;;;;;5099733;27;44555;-74
2023/03/26 12:12:19;;;;;;;1.27;1.27;;;18.30;63.20;;;;;;5102707;27;43409;-76
2023/03/26 12:14:47;;;;;;;1.13;1.13;;;18.20;63.00;;;;;;5102297;27;43495;-75
2023/03/26 12:17:25;;;;;;;1.20;1.20;;;18.20;63.10;;;;;;5100562;27;43438;-74
2023/03/26 12:20:00;;;;;;;1.20;1.20;;;18.20;63.40;;;;;;5080797;27;46316;-75
2023/03/26 12:22:30;;;;;;;1.30;1.30;;;18.10;63.50;;;;;;5100688;27;43595;-75
2023/03/26 12:25:02;;;;;;;1.60;1.50;;;18.10;63.50;;;;;;5101001;27;44000;-77
2023/03/26 12:27:32;;;;;;;1.50;1.50;;;18.10;63.40;;;;;;5102283;27;43542;-76
2023/03/26 12:30:09;;;;;;;1.30;1.30;;;18.10;63.50;;;;;;5085957;27;45750;-76
2023/03/26 12:32:40;;;;;;;1.30;1.30;;;18.10;63.50;;;;;;5105808;27;44888;-77
2023/03/26 12:35:18;;;;;;;1.50;1.50;;;18.10;63.70;;;;;;5105051;27;43770;-76
2023/03/26 12:37:46;;;;;;;1.50;1.50;;;18.00;63.60;;;;;;5101429;27;44708;-76
2023/03/26 12:40:28;;;;;;;1.57;1.57;;;18.10;63.60;;;;;;5081637;27;47144;-74
2023/03/26 12:42:57;;;;;;;1.37;1.37;;;18.10;63.50;;;;;;5084696;27;43505;-75
2023/03/26 12:45:45;;;;;;;1.33;1.33;;;18.10;63.70;;;;;;5085735;27;43517;-76
2023/03/26 12:48:33;;;;;;;1.40;1.40;;;18.10;63.80;;;;;;5100189;27;43513;-74
2023/03/26 12:51:07;;;;;;;1.40;1.40;;;18.00;63.70;;;;;;5085758;27;45679;-76
2023/03/26 12:53:46;;;;;;;1.33;1.33;;;18.00;63.60;;;;;;5100728;27;44131;-76
2023/03/26 12:56:20;;;;;;;1.27;1.27;;;18.00;63.40;;;;;;5102379;27;43409;-77
2023/03/26 12:59:01;;;;;;;1.57;1.53;;;18.20;63.20;;;;;;5101313;27;43355;-74
2023/03/26 13:01:35;;;;;;;1.47;1.37;;;18.30;62.90;;;;;;5101546;27;44151;-77
2023/03/26 13:04:12;;;;;;;1.40;1.40;;;18.30;62.60;;;;;;5098838;27;43461;-73
2023/03/26 13:06:43;;;;;;;1.50;1.47;;;18.30;62.80;;;;;;5100939;27;43477;-73
2023/03/26 13:09:36;;;;;;;1.40;1.40;;;18.20;62.70;;;;;;5102219;27;43400;-75
2023/03/26 13:12:08;;;;;;;1.50;1.50;;;18.20;62.60;;;;;;5097858;27;43752;-75
2023/03/26 13:15:04;;;;;;;1.40;1.40;;;18.20;62.90;;;;;;5085766;27;44749;-76
2023/03/26 13:17:34;;;;;;;1.10;1.10;;;18.20;63.80;;;;;;5098687;27;43964;-76
2023/03/26 13:20:10;;;;;;;1.20;1.20;;;18.10;63.20;;;;;;5099764;27;44036;-77
2023/03/26 13:22:43;;;;;;;1.30;1.30;;;18.10;63.30;;;;;;5096880;27;44037;-77
2023/03/26 13:25:23;;;;;;;1.40;1.40;;;18.10;63.20;;;;;;5083525;27;45013;-76
2023/03/26 13:27:54;;;;;;;1.30;1.30;;;18.10;63.10;;;;;;5103441;27;43490;-75
2023/03/26 13:30:26;;;;;;;1.17;1.17;;;18.10;63.40;;;;;;5103477;27;43945;-75
2023/03/26 13:33:12;;;;;;;1.40;1.40;;;18.00;63.30;;;;;;5102998;27;44479;-75
2023/03/26 13:35:42;;;;;;;1.40;1.40;;;18.00;63.40;;;;;;5107425;27;43787;-75
2023/03/26 13:38:14;;;;;;;1.80;1.30;;;18.00;63.30;;;;;;5104234;27;43463;-73
2023/03/26 13:40:47;;;;;;;1.23;1.23;;;18.00;63.30;;;;;;5084713;27;43669;-73
2023/03/26 13:43:24;;;;;;;1.23;1.23;;;18.00;63.40;;;;;;5104339;27;44128;-77